首页
METAR-TAF:

METAR-TAF

机场 :

布赖顿, 英格兰

纬度: 50-50N, 经度: 000-17W, 海拔: 2米

当前天气观测

该预报发布于7小时和8分钟前的16:20 UTC
风速9节,风向北转东北
温度 19°C
湿度 64%
气压 1005 hPa
能见度10公里或以上
1500米以下无云,无积雨云

METAR: EGKA 031620Z 02009KT CAVOK 19/12 Q1005

时间: 00:28 (23:28 UTC)

预报

该预报发布于15小时和27分钟前的08:01 UTC
预报有效从03日的 09点(UTC)到 03日的 17点(UTC)
风速8节,风向
能见度10公里或以上
1500米以下无云,无积雨云
短暂存在
从 03日的 09点(UTC)到 03日的 17点(UTC)
能見度: 8000
小雨
成为
从 03日的 10点(UTC)到 03日的 13点(UTC)
多云层高于4000英尺
几率 30%
从 03日的 12点(UTC)到 03日的 17点(UTC)
风速10节,风向南转西南
几率 30% :
短暂存在
从 03日的 13点(UTC)到 03日的 17点(UTC)
多云层高于1200英尺
阵雨, 雨

TAF: EGKA 030801Z 0309/0317 36008KT CAVOK TEMPO 0309/0317 8000 -RA BECMG 0310/0313 BKN040 PROB30 0312/0317 20010KT PROB30 TEMPO 0313/0317 SHRA RA BKN012

超过4000个机场的气象观测和天气预报(METAR&TAF报告)。

可查询的气象台以黄色和红色小点在地图上表示。

将鼠标移到小点上方,可查看气象台名称。

然后点击查看天气观测和预报。

如需切换地图:点击带黑十字的绿色按钮放大地图;点击带横线的绿色按钮缩小地图;或者点击绿色箭头查看邻近地区的地图。


METAR-TAF: